createdAt,value
2022-12-26T00:01:53.270Z,11.70
2022-12-26T00:04:49.107Z,11.70
2022-12-26T00:07:07.430Z,11.68
2022-12-26T00:09:34.606Z,11.66
2022-12-26T00:12:01.475Z,11.67
2022-12-26T00:14:28.665Z,11.68
2022-12-26T00:16:55.478Z,11.73
2022-12-26T00:19:22.411Z,11.72
2022-12-26T00:21:49.255Z,11.75
2022-12-26T00:24:16.086Z,11.75
2022-12-26T00:26:43.118Z,11.75
2022-12-26T00:29:09.968Z,11.79
2022-12-26T00:31:37.046Z,11.80
2022-12-26T00:34:03.929Z,11.83
2022-12-26T00:36:32.168Z,11.81
2022-12-26T00:39:00.134Z,11.81
2022-12-26T00:41:27.007Z,11.81
2022-12-26T00:43:53.903Z,11.85
2022-12-26T00:46:20.855Z,11.87
2022-12-26T00:48:48.122Z,11.91
2022-12-26T00:51:15.382Z,11.90
2022-12-26T00:53:42.594Z,11.91
2022-12-26T00:56:09.648Z,11.91
2022-12-26T00:58:36.811Z,11.90
2022-12-26T01:01:06.829Z,11.91
2022-12-26T01:03:34.051Z,11.88
2022-12-26T01:06:02.413Z,11.90
2022-12-26T01:08:29.273Z,11.89
2022-12-26T01:10:56.118Z,11.90
2022-12-26T01:13:22.965Z,11.89
2022-12-26T01:15:50.919Z,11.89
2022-12-26T01:18:17.915Z,11.89
2022-12-26T01:20:44.853Z,11.87
2022-12-26T01:23:11.675Z,11.90
2022-12-26T01:26:15.300Z,11.94
2022-12-26T01:28:26.565Z,11.93
2022-12-26T01:30:53.508Z,11.92
2022-12-26T01:33:20.476Z,11.92
2022-12-26T01:35:50.460Z,11.95
2022-12-26T01:38:17.574Z,11.99
2022-12-26T01:40:44.898Z,11.98
2022-12-26T01:43:12.494Z,11.99
2022-12-26T01:45:39.522Z,12.02
2022-12-26T01:48:13.271Z,12.02
2022-12-26T01:50:43.199Z,12.01
2022-12-26T01:53:13.218Z,12.02
2022-12-26T01:55:40.692Z,12.00
2022-12-26T01:58:10.178Z,11.97
2022-12-26T02:00:38.115Z,11.92
2022-12-26T02:03:10.116Z,11.87
2022-12-26T02:05:37.768Z,11.88
2022-12-26T02:08:07.680Z,11.88
2022-12-26T02:10:38.956Z,11.86
2022-12-26T02:13:06.220Z,11.90
2022-12-26T02:15:33.553Z,11.94
2022-12-26T02:18:00.507Z,11.99
2022-12-26T02:20:29.314Z,12.00
2022-12-26T02:22:57.485Z,12.00
2022-12-26T02:25:27.387Z,11.99
2022-12-26T02:27:54.553Z,12.03
2022-12-26T02:30:22.890Z,12.04
2022-12-26T02:32:50.092Z,12.00
2022-12-26T02:35:20.030Z,12.02
2022-12-26T02:37:48.350Z,12.04
2022-12-26T02:40:18.221Z,12.04
2022-12-26T02:42:48.172Z,12.05
2022-12-26T02:45:21.239Z,12.06
2022-12-26T02:47:51.136Z,12.06
2022-12-26T02:50:24.232Z,12.07
2022-12-26T02:53:04.121Z,12.07
2022-12-26T02:55:35.679Z,12.06
2022-12-26T02:58:09.446Z,12.07
2022-12-26T03:00:43.069Z,12.10
2022-12-26T03:03:16.173Z,12.07
2022-12-26T03:05:49.741Z,12.09
2022-12-26T03:08:23.663Z,12.09
2022-12-26T03:10:55.205Z,12.12
2022-12-26T03:13:26.547Z,12.20
2022-12-26T03:15:57.799Z,12.26
2022-12-26T03:18:58.973Z,12.25
2022-12-26T03:21:13.259Z,12.18
2022-12-26T03:23:41.453Z,12.13
2022-12-26T03:26:15.679Z,12.08
2022-12-26T03:28:43.319Z,12.05
2022-12-26T03:31:12.389Z,12.00
2022-12-26T03:33:44.799Z,11.94
2022-12-26T03:36:14.726Z,11.89
2022-12-26T03:38:51.667Z,11.86
2022-12-26T03:41:35.414Z,11.80
2022-12-26T03:44:24.410Z,11.80
2022-12-26T03:47:13.387Z,11.76
2022-12-26T03:49:53.597Z,11.76
2022-12-26T03:52:39.361Z,11.74
2022-12-26T03:55:25.732Z,11.72
2022-12-26T03:58:10.559Z,11.68
2022-12-26T04:00:47.464Z,11.61
2022-12-26T04:03:24.478Z,11.55
2022-12-26T04:06:02.408Z,11.57
2022-12-26T04:08:43.493Z,11.56
2022-12-26T04:11:22.484Z,11.51
2022-12-26T04:14:08.371Z,11.47
2022-12-26T04:16:44.360Z,11.45
2022-12-26T04:19:30.596Z,11.46
2022-12-26T04:22:16.801Z,11.45
2022-12-26T04:24:56.549Z,11.44
2022-12-26T04:27:35.401Z,11.42
2022-12-26T04:30:11.712Z,11.37
2022-12-26T04:32:51.355Z,11.32
2022-12-26T04:35:30.438Z,11.32
2022-12-26T04:38:07.378Z,11.27
2022-12-26T04:40:46.491Z,11.25
2022-12-26T04:43:48.857Z,11.21
2022-12-26T04:46:10.800Z,11.20
2022-12-26T04:48:52.352Z,11.22
2022-12-26T04:51:19.070Z,11.22
2022-12-26T04:53:46.518Z,11.22
2022-12-26T04:56:14.257Z,11.21
2022-12-26T04:58:41.104Z,11.22
2022-12-26T05:01:17.528Z,11.22
2022-12-26T05:03:53.516Z,11.17
2022-12-26T05:06:29.472Z,11.18
2022-12-26T05:09:05.463Z,11.16
2022-12-26T05:11:34.571Z,11.14
2022-12-26T05:14:01.785Z,11.13
2022-12-26T05:16:38.414Z,11.13
2022-12-26T05:19:14.513Z,10.96
2022-12-26T05:21:51.343Z,10.72
2022-12-26T05:24:27.413Z,10.56
2022-12-26T05:27:03.356Z,10.41
2022-12-26T05:29:30.192Z,10.32
2022-12-26T05:31:57.032Z,10.23
2022-12-26T05:34:23.839Z,10.15
2022-12-26T05:36:51.931Z,10.11
2022-12-26T05:39:18.909Z,10.10
2022-12-26T05:41:45.735Z,10.06
2022-12-26T05:44:12.683Z,10.02
2022-12-26T05:46:39.908Z,9.95
2022-12-26T05:49:06.897Z,9.88
2022-12-26T05:51:33.758Z,9.84
2022-12-26T05:54:00.966Z,9.83
2022-12-26T05:56:28.925Z,9.81
2022-12-26T05:58:56.760Z,9.79
2022-12-26T06:01:24.261Z,9.78
2022-12-26T06:03:52.791Z,9.78
2022-12-26T06:06:19.980Z,9.74
2022-12-26T06:08:49.038Z,9.70
2022-12-26T06:11:15.873Z,9.65
2022-12-26T06:13:43.039Z,9.61
2022-12-26T06:16:11.264Z,9.57
2022-12-26T06:18:38.012Z,9.55
2022-12-26T06:21:06.339Z,9.48
2022-12-26T06:23:33.477Z,9.43
2022-12-26T06:26:00.194Z,9.38
2022-12-26T06:28:27.230Z,9.35
2022-12-26T06:30:54.413Z,9.31
2022-12-26T06:33:21.184Z,9.31
2022-12-26T06:35:47.934Z,9.28
2022-12-26T06:38:14.689Z,9.24
2022-12-26T06:40:41.697Z,9.20
2022-12-26T06:43:08.628Z,9.16
2022-12-26T06:45:35.792Z,9.13
2022-12-26T06:48:02.911Z,9.11
2022-12-26T06:50:29.624Z,9.07
2022-12-26T06:52:56.366Z,9.05
2022-12-26T06:55:23.299Z,9.01
2022-12-26T06:57:51.860Z,8.99
2022-12-26T07:00:18.665Z,8.95
2022-12-26T07:02:45.518Z,8.94
2022-12-26T07:05:12.340Z,8.93
2022-12-26T07:07:39.174Z,8.94
2022-12-26T07:10:06.213Z,8.91
2022-12-26T07:12:34.847Z,8.89
2022-12-26T07:15:02.208Z,8.85
2022-12-26T07:17:29.065Z,8.86
2022-12-26T07:19:55.883Z,8.86
2022-12-26T07:22:22.613Z,8.86
2022-12-26T07:24:49.615Z,8.83
2022-12-26T07:27:16.377Z,8.80
2022-12-26T07:29:43.128Z,8.74
2022-12-26T07:32:10.015Z,8.70
2022-12-26T07:34:36.842Z,8.69
2022-12-26T07:37:03.706Z,8.65
2022-12-26T07:39:30.472Z,8.62
2022-12-26T07:41:58.386Z,8.61
2022-12-26T07:44:25.979Z,8.58
2022-12-26T07:46:56.918Z,8.58
2022-12-26T07:49:23.987Z,8.53
2022-12-26T07:51:51.058Z,8.51
2022-12-26T07:54:18.541Z,8.50
2022-12-26T07:56:45.553Z,8.51
2022-12-26T07:59:15.671Z,8.47
2022-12-26T08:01:43.195Z,8.47
2022-12-26T08:04:10.759Z,8.45
2022-12-26T08:06:38.556Z,8.45
2022-12-26T08:09:05.865Z,8.43
2022-12-26T08:11:34.275Z,8.45
2022-12-26T08:14:00.968Z,8.44
2022-12-26T08:16:28.044Z,8.43
2022-12-26T08:18:54.780Z,8.44
2022-12-26T08:21:21.502Z,8.44
2022-12-26T08:23:48.725Z,8.43
2022-12-26T08:26:22.787Z,8.43
2022-12-26T08:28:51.077Z,8.40
2022-12-26T08:31:18.502Z,8.39
2022-12-26T08:33:45.219Z,8.37
2022-12-26T08:36:13.297Z,8.35
2022-12-26T08:38:40.597Z,8.34
2022-12-26T08:41:07.536Z,8.35
2022-12-26T08:44:16.156Z,8.36
2022-12-26T08:46:22.675Z,8.37
2022-12-26T08:48:50.093Z,8.37
2022-12-26T08:51:18.015Z,8.37
2022-12-26T08:53:46.165Z,8.37
2022-12-26T08:56:15.059Z,8.35
2022-12-26T08:58:42.294Z,8.36
2022-12-26T09:01:11.047Z,8.34
2022-12-26T09:03:38.339Z,8.34
2022-12-26T09:06:06.856Z,8.35
2022-12-26T09:08:35.131Z,8.39
2022-12-26T09:11:02.662Z,8.40
2022-12-26T09:13:29.363Z,8.41
2022-12-26T09:15:56.068Z,8.43
2022-12-26T09:18:23.136Z,8.44
2022-12-26T09:20:49.889Z,8.46
2022-12-26T09:23:16.883Z,8.47
2022-12-26T09:25:43.656Z,8.49
2022-12-26T09:28:10.449Z,8.50
2022-12-26T09:30:38.457Z,8.51
2022-12-26T09:33:07.936Z,8.52
2022-12-26T09:35:34.688Z,8.55
2022-12-26T09:38:01.634Z,8.57
2022-12-26T09:40:32.823Z,8.59
2022-12-26T09:43:10.029Z,8.59
2022-12-26T09:45:45.859Z,8.64
2022-12-26T09:48:12.790Z,8.66
2022-12-26T09:50:43.131Z,8.68
2022-12-26T09:53:15.722Z,8.69
2022-12-26T09:55:45.026Z,8.71
2022-12-26T09:58:12.955Z,8.73
2022-12-26T10:00:44.553Z,8.75
2022-12-26T10:03:12.147Z,8.75
2022-12-26T10:05:41.136Z,8.77
2022-12-26T10:08:20.918Z,8.78
2022-12-26T10:10:55.710Z,8.79
2022-12-26T10:13:30.288Z,8.80
2022-12-26T10:16:01.748Z,8.79
2022-12-26T10:18:31.808Z,8.81
2022-12-26T10:21:05.734Z,8.82
2022-12-26T10:23:41.772Z,8.86
2022-12-26T10:26:14.903Z,8.88
2022-12-26T10:28:44.913Z,8.90
2022-12-26T10:31:15.429Z,8.93
2022-12-26T10:33:46.169Z,8.93
2022-12-26T10:36:16.615Z,8.94
2022-12-26T10:38:46.071Z,8.92
2022-12-26T10:41:19.779Z,8.91
2022-12-26T10:43:46.572Z,8.90
2022-12-26T10:46:13.895Z,8.93
2022-12-26T10:48:40.679Z,8.94
2022-12-26T10:51:07.684Z,8.97
2022-12-26T10:53:35.675Z,8.98
2022-12-26T10:56:03.222Z,9.02
2022-12-26T10:58:31.760Z,9.06
2022-12-26T11:01:18.464Z,9.08
2022-12-26T11:03:54.444Z,9.12
2022-12-26T11:06:22.950Z,9.14
2022-12-26T11:08:50.772Z,9.15
2022-12-26T11:11:18.708Z,9.17
2022-12-26T11:13:48.010Z,9.18
2022-12-26T11:16:23.579Z,9.19
2022-12-26T11:18:51.399Z,9.20
2022-12-26T11:21:18.414Z,9.17
2022-12-26T11:23:46.886Z,9.20
2022-12-26T11:26:23.575Z,9.22
2022-12-26T11:28:59.513Z,9.27
2022-12-26T11:31:28.396Z,9.28
2022-12-26T11:33:55.207Z,9.31
2022-12-26T11:36:24.171Z,9.37
2022-12-26T11:39:00.180Z,9.40
2022-12-26T11:41:37.392Z,9.42
2022-12-26T11:44:05.332Z,9.43
2022-12-26T11:46:34.769Z,9.44
2022-12-26T11:49:01.974Z,9.48
2022-12-26T11:51:41.200Z,9.52
2022-12-26T11:54:18.860Z,9.54
2022-12-26T11:56:45.608Z,9.57
2022-12-26T11:59:20.493Z,9.59
2022-12-26T12:01:47.556Z,9.59
2022-12-26T12:04:14.500Z,9.64
2022-12-26T12:06:41.489Z,9.64
2022-12-26T12:09:28.162Z,9.68
2022-12-26T12:11:59.533Z,9.70
2022-12-26T12:14:30.667Z,9.73
2022-12-26T12:17:04.471Z,9.71
2022-12-26T12:19:31.624Z,9.72
2022-12-26T12:22:07.578Z,9.73
2022-12-26T12:24:44.500Z,9.72
2022-12-26T12:27:20.619Z,9.72
2022-12-26T12:29:54.633Z,9.75
2022-12-26T12:32:26.597Z,9.70
2022-12-26T12:34:53.228Z,9.71
2022-12-26T12:37:38.585Z,9.73
2022-12-26T12:40:16.588Z,9.80
2022-12-26T12:42:55.985Z,9.77
2022-12-26T12:45:35.478Z,9.76
2022-12-26T12:48:02.291Z,9.78
2022-12-26T12:50:37.331Z,9.84
2022-12-26T12:53:03.968Z,9.91
2022-12-26T12:55:36.542Z,9.97
2022-12-26T12:58:09.777Z,10.02
2022-12-26T13:00:45.049Z,10.04
2022-12-26T13:03:43.784Z,10.04
2022-12-26T13:06:22.904Z,10.07
2022-12-26T13:08:53.335Z,10.08
2022-12-26T13:11:19.961Z,10.11
2022-12-26T13:13:53.569Z,10.07
2022-12-26T13:16:23.595Z,10.04
2022-12-26T13:18:52.627Z,10.09
2022-12-26T13:21:20.769Z,10.08
2022-12-26T13:24:25.267Z,10.13
2022-12-26T13:26:55.798Z,10.10
2022-12-26T13:29:32.332Z,10.13
2022-12-26T13:31:59.595Z,10.11
2022-12-26T13:34:26.572Z,10.13
2022-12-26T13:36:55.915Z,10.12
2022-12-26T13:39:25.626Z,10.10
2022-12-26T13:42:15.701Z,10.09
2022-12-26T13:44:42.639Z,10.06
2022-12-26T13:47:29.508Z,10.10
2022-12-26T13:49:56.199Z,10.12
2022-12-26T13:52:23.207Z,10.15
2022-12-26T13:54:52.893Z,10.18
2022-12-26T13:57:31.820Z,10.16
2022-12-26T14:00:16.635Z,10.14
2022-12-26T14:05:48.418Z,10.11
2022-12-26T14:08:24.348Z,10.14
2022-12-26T14:10:56.875Z,10.11
2022-12-26T14:13:44.111Z,10.08
2022-12-26T14:16:16.227Z,10.08
2022-12-26T14:18:58.332Z,10.06
2022-12-26T14:21:24.966Z,10.06
2022-12-26T14:24:01.899Z,10.07
2022-12-26T14:26:39.902Z,10.07
2022-12-26T14:29:13.409Z,10.04
2022-12-26T14:31:40.050Z,10.08
2022-12-26T14:34:14.167Z,10.12
2022-12-26T14:36:59.623Z,10.09
2022-12-26T14:39:26.181Z,10.07
2022-12-26T14:42:33.989Z,10.04
2022-12-26T14:45:01.543Z,9.96
2022-12-26T14:47:43.059Z,9.96
2022-12-26T14:50:28.219Z,9.98
2022-12-26T14:52:54.978Z,9.95
2022-12-26T14:55:40.117Z,9.91
2022-12-26T14:58:30.004Z,9.89
2022-12-26T15:01:18.109Z,9.85
2022-12-26T15:04:06.192Z,9.83
2022-12-26T15:06:45.109Z,9.81
2022-12-26T15:09:30.506Z,9.78
2022-12-26T15:11:57.395Z,9.73
2022-12-26T15:14:50.409Z,9.72
2022-12-26T15:17:34.421Z,9.70
2022-12-26T15:20:01.034Z,9.65
2022-12-26T15:22:36.639Z,9.63
2022-12-26T15:25:29.909Z,9.61
2022-12-26T15:27:56.499Z,9.58
2022-12-26T15:30:32.631Z,9.55
2022-12-26T15:33:02.342Z,9.56
2022-12-26T15:35:40.206Z,9.52
2022-12-26T15:38:13.015Z,9.46
2022-12-26T15:40:44.589Z,9.44
2022-12-26T15:43:42.187Z,9.41
2022-12-26T15:46:17.744Z,9.37
2022-12-26T15:49:02.907Z,9.37
2022-12-26T15:51:52.333Z,9.33
2022-12-26T15:54:45.195Z,9.28
2022-12-26T15:57:16.297Z,9.28
2022-12-26T15:59:54.959Z,9.27
2022-12-26T16:02:28.053Z,9.25
2022-12-26T16:05:18.117Z,9.23
2022-12-26T16:07:52.467Z,9.22
2022-12-26T16:10:25.131Z,9.18
2022-12-26T16:13:03.893Z,9.19
2022-12-26T16:15:32.215Z,9.18
2022-12-26T16:18:21.878Z,9.17
2022-12-26T16:21:09.206Z,9.15
2022-12-26T16:23:40.411Z,9.11
2022-12-26T16:26:07.270Z,9.09
2022-12-26T16:28:39.487Z,9.10
2022-12-26T16:31:06.907Z,9.08
2022-12-26T16:33:42.729Z,9.02
2022-12-26T16:36:11.362Z,9.00
2022-12-26T16:38:38.431Z,9.01
2022-12-26T16:41:24.686Z,9.02
2022-12-26T16:43:52.518Z,9.01
2022-12-26T16:46:20.989Z,9.01
2022-12-26T16:48:54.529Z,8.96
2022-12-26T16:51:35.548Z,8.93
2022-12-26T16:54:15.280Z,8.93
2022-12-26T16:56:42.256Z,8.95
2022-12-26T16:59:21.022Z,8.95
2022-12-26T17:01:50.092Z,8.94
2022-12-26T17:04:16.885Z,8.94
2022-12-26T17:06:51.863Z,8.96
2022-12-26T17:09:19.148Z,8.93
2022-12-26T17:11:51.857Z,8.89
2022-12-26T17:14:24.907Z,8.83
2022-12-26T17:17:02.942Z,8.82
2022-12-26T17:19:31.935Z,8.81
2022-12-26T17:22:18.101Z,8.78
2022-12-26T17:24:45.769Z,8.80
2022-12-26T17:27:25.679Z,8.82
2022-12-26T17:29:54.291Z,8.79
2022-12-26T17:32:28.867Z,8.78
2022-12-26T17:34:55.581Z,8.76
2022-12-26T17:37:24.763Z,8.74
2022-12-26T17:40:11.653Z,8.68
2022-12-26T17:43:04.791Z,8.65
2022-12-26T17:45:31.661Z,8.58
2022-12-26T17:47:58.559Z,8.55
2022-12-26T17:50:29.929Z,8.54
2022-12-26T17:53:03.279Z,8.55
2022-12-26T17:55:30.102Z,8.53
2022-12-26T17:57:56.843Z,8.54
2022-12-26T18:00:25.439Z,8.53
2022-12-26T18:02:52.528Z,8.49
2022-12-26T18:05:19.677Z,8.47
2022-12-26T18:07:47.504Z,8.46
2022-12-26T18:10:19.879Z,8.47
2022-12-26T18:12:46.645Z,8.44
2022-12-26T18:15:13.442Z,8.41
2022-12-26T18:17:40.312Z,8.41
2022-12-26T18:20:08.034Z,8.41
2022-12-26T18:22:34.715Z,8.41
2022-12-26T18:25:01.336Z,8.37
2022-12-26T18:27:30.489Z,8.35
2022-12-26T18:29:57.481Z,8.33
2022-12-26T18:32:25.908Z,8.31
2022-12-26T18:34:53.323Z,8.29
2022-12-26T18:37:20.785Z,8.29
2022-12-26T18:39:47.553Z,8.27
2022-12-26T18:42:15.114Z,8.26
2022-12-26T18:44:42.791Z,8.29
2022-12-26T18:47:13.618Z,8.30
2022-12-26T18:49:41.120Z,8.34
2022-12-26T18:52:08.193Z,8.33
2022-12-26T18:54:36.617Z,8.32
2022-12-26T18:57:04.280Z,8.27
2022-12-26T18:59:30.928Z,8.27
2022-12-26T19:01:57.637Z,8.27
2022-12-26T19:04:24.381Z,8.25
2022-12-26T19:06:51.063Z,8.25
2022-12-26T19:09:17.771Z,8.22
2022-12-26T19:11:44.469Z,8.22
2022-12-26T19:14:17.682Z,8.21
2022-12-26T19:16:44.393Z,8.22
2022-12-26T19:19:11.229Z,8.18
2022-12-26T19:21:37.960Z,8.16
2022-12-26T19:24:05.007Z,8.17
2022-12-26T19:26:31.658Z,8.15
2022-12-26T19:28:58.365Z,8.14
2022-12-26T19:31:25.026Z,8.14
2022-12-26T19:33:51.706Z,8.14
2022-12-26T19:36:18.376Z,8.10
2022-12-26T19:38:44.992Z,8.08
2022-12-26T19:41:12.555Z,8.04
2022-12-26T19:43:44.413Z,8.01
2022-12-26T19:46:12.569Z,7.98
2022-12-26T19:48:39.382Z,7.96
2022-12-26T19:51:07.704Z,7.93
2022-12-26T19:53:37.955Z,7.92
2022-12-26T19:56:08.897Z,7.96
2022-12-26T19:58:35.744Z,7.95
2022-12-26T20:01:06.572Z,7.94
2022-12-26T20:03:40.449Z,7.96
2022-12-26T20:06:14.629Z,7.94
2022-12-26T20:08:41.903Z,7.95
2022-12-26T20:11:19.282Z,7.91
2022-12-26T20:13:46.539Z,7.94
2022-12-26T20:16:45.746Z,7.97
2022-12-26T20:19:02.448Z,7.99
2022-12-26T20:21:29.183Z,8.01
2022-12-26T20:23:57.217Z,8.00
2022-12-26T20:26:24.367Z,8.00
2022-12-26T20:28:51.179Z,7.97
2022-12-26T20:31:19.601Z,7.98
2022-12-26T20:33:47.184Z,7.96
2022-12-26T20:36:15.343Z,7.93
2022-12-26T20:38:42.744Z,7.94
2022-12-26T20:41:09.812Z,7.90
2022-12-26T20:43:44.748Z,7.89
2022-12-26T20:46:15.562Z,7.87
2022-12-26T20:48:42.748Z,7.87
2022-12-26T20:51:11.794Z,7.86
2022-12-26T20:53:38.414Z,7.87
2022-12-26T20:56:05.297Z,7.88
2022-12-26T20:58:33.400Z,7.88
2022-12-26T21:01:01.712Z,7.88
2022-12-26T21:03:29.009Z,7.91
2022-12-26T21:06:04.639Z,7.86
2022-12-26T21:08:31.312Z,7.84
2022-12-26T21:11:04.015Z,7.85
2022-12-26T21:13:30.649Z,7.82
2022-12-26T21:15:57.310Z,7.78
2022-12-26T21:18:24.041Z,7.76
2022-12-26T21:20:50.666Z,7.77
2022-12-26T21:23:17.346Z,7.80
2022-12-26T21:25:43.968Z,7.80
2022-12-26T21:28:10.645Z,7.78
2022-12-26T21:30:37.385Z,7.78
2022-12-26T21:33:04.091Z,7.73
2022-12-26T21:35:30.847Z,7.72
2022-12-26T21:37:57.578Z,7.72
2022-12-26T21:40:25.538Z,7.70
2022-12-26T21:42:52.250Z,7.68
2022-12-26T21:45:19.951Z,7.65
2022-12-26T21:47:46.568Z,7.64
2022-12-26T21:50:13.177Z,7.63
2022-12-26T21:52:39.888Z,7.65
2022-12-26T21:55:25.175Z,7.69
2022-12-26T21:57:52.135Z,7.73
2022-12-26T22:00:18.877Z,7.73
2022-12-26T22:03:04.486Z,7.68
2022-12-26T22:05:34.757Z,7.67
2022-12-26T22:08:02.063Z,7.66
2022-12-26T22:10:48.409Z,7.66
2022-12-26T22:13:15.104Z,7.65
2022-12-26T22:16:04.007Z,7.65
2022-12-26T22:18:31.887Z,7.67
2022-12-26T22:21:17.724Z,7.66
2022-12-26T22:23:44.725Z,7.60
2022-12-26T22:26:12.406Z,7.56
2022-12-26T22:28:39.474Z,7.52
2022-12-26T22:31:06.631Z,7.50
2022-12-26T22:33:40.827Z,7.40
2022-12-26T22:36:08.272Z,7.43
2022-12-26T22:38:35.737Z,7.49
2022-12-26T22:41:02.954Z,7.51
2022-12-26T22:43:30.077Z,7.55
2022-12-26T22:45:56.881Z,7.56
2022-12-26T22:48:24.025Z,7.53
2022-12-26T22:50:54.659Z,7.52
2022-12-26T22:53:32.920Z,7.49
2022-12-26T22:56:01.313Z,7.42
2022-12-26T22:58:28.434Z,7.41
2022-12-26T23:00:55.241Z,7.43
2022-12-26T23:03:22.387Z,7.46
2022-12-26T23:05:49.489Z,7.45
2022-12-26T23:08:17.871Z,7.47
2022-12-26T23:10:45.041Z,7.46
2022-12-26T23:13:12.961Z,7.48
2022-12-26T23:15:50.438Z,7.49
2022-12-26T23:18:42.288Z,7.51
2022-12-26T23:21:34.573Z,7.50
2022-12-26T23:24:01.235Z,7.49
2022-12-26T23:26:27.831Z,7.46
2022-12-26T23:29:13.208Z,7.43
2022-12-26T23:31:39.854Z,7.42
2022-12-26T23:34:06.570Z,7.44
2022-12-26T23:36:33.214Z,7.45
2022-12-26T23:38:59.893Z,7.48
2022-12-26T23:41:26.804Z,7.49
2022-12-26T23:43:53.438Z,7.50
2022-12-26T23:46:20.165Z,7.47
2022-12-26T23:48:46.832Z,7.46
2022-12-26T23:51:13.471Z,7.43
2022-12-26T23:53:46.926Z,7.40
2022-12-26T23:56:13.704Z,7.38
2022-12-26T23:58:40.351Z,7.40
